sensor_id;sensor_type;location;lat;lon;timestamp;temperature;humidity
12839;DHT22;6486;51.034;5.262;2024-03-23T00:54:23;20.10;49.70
12839;DHT22;6486;51.034;5.262;2024-03-23T00:56:49;20.20;49.80
12839;DHT22;6486;51.034;5.262;2024-03-23T00:59:14;20.10;49.60
12839;DHT22;6486;51.034;5.262;2024-03-23T01:01:40;20.20;49.70
12839;DHT22;6486;51.034;5.262;2024-03-23T01:04:05;20.20;49.60
12839;DHT22;6486;51.034;5.262;2024-03-23T01:06:31;20.20;49.60
12839;DHT22;6486;51.034;5.262;2024-03-23T01:08:57;20.20;49.60
12839;DHT22;6486;51.034;5.262;2024-03-23T01:11:22;20.20;49.60
12839;DHT22;6486;51.034;5.262;2024-03-23T01:13:48;20.20;49.50
12839;DHT22;6486;51.034;5.262;2024-03-23T01:16:14;20.20;49.50
12839;DHT22;6486;51.034;5.262;2024-03-23T01:18:39;20.20;49.50
12839;DHT22;6486;51.034;5.262;2024-03-23T01:21:05;20.20;49.40
12839;DHT22;6486;51.034;5.262;2024-03-23T01:23:31;20.20;49.40
12839;DHT22;6486;51.034;5.262;2024-03-23T01:25:56;20.20;49.40
12839;DHT22;6486;51.034;5.262;2024-03-23T01:28:22;20.10;49.30
12839;DHT22;6486;51.034;5.262;2024-03-23T01:30:49;20.20;49.30
12839;DHT22;6486;51.034;5.262;2024-03-23T01:33:14;20.20;49.30
12839;DHT22;6486;51.034;5.262;2024-03-23T01:35:40;20.10;49.30
12839;DHT22;6486;51.034;5.262;2024-03-23T01:38:06;20.20;49.30
12839;DHT22;6486;51.034;5.262;2024-03-23T01:40:31;20.10;49.20
12839;DHT22;6486;51.034;5.262;2024-03-23T01:43:05;20.10;49.20
12839;DHT22;6486;51.034;5.262;2024-03-23T01:45:33;20.20;49.30
12839;DHT22;6486;51.034;5.262;2024-03-23T01:47:59;20.10;49.20
12839;DHT22;6486;51.034;5.262;2024-03-23T01:50:26;20.20;49.20
12839;DHT22;6486;51.034;5.262;2024-03-23T01:52:52;20.20;49.20
12839;DHT22;6486;51.034;5.262;2024-03-23T01:55:18;20.20;49.20
12839;DHT22;6486;51.034;5.262;2024-03-23T01:57:44;20.20;49.10
12839;DHT22;6486;51.034;5.262;2024-03-23T02:00:10;20.20;49.10
12839;DHT22;6486;51.034;5.262;2024-03-23T02:02:46;20.20;49.10
12839;DHT22;6486;51.034;5.262;2024-03-23T02:05:12;20.20;49.10
12839;DHT22;6486;51.034;5.262;2024-03-23T02:07:42;20.20;49.00
12839;DHT22;6486;51.034;5.262;2024-03-23T02:10:11;20.20;49.00
12839;DHT22;6486;51.034;5.262;2024-03-23T02:12:40;20.20;49.00
12839;DHT22;6486;51.034;5.262;2024-03-23T02:15:06;20.20;49.00
12839;DHT22;6486;51.034;5.262;2024-03-23T02:17:33;20.20;48.90
12839;DHT22;6486;51.034;5.262;2024-03-23T02:19:59;20.20;48.90
12839;DHT22;6486;51.034;5.262;2024-03-23T02:22:39;20.20;48.90
12839;DHT22;6486;51.034;5.262;2024-03-23T02:25:06;20.20;48.90
12839;DHT22;6486;51.034;5.262;2024-03-23T02:27:32;20.20;48.90
12839;DHT22;6486;51.034;5.262;2024-03-23T02:29:58;20.20;48.80
12839;DHT22;6486;51.034;5.262;2024-03-23T02:32:24;20.20;48.90
12839;DHT22;6486;51.034;5.262;2024-03-23T02:34:50;20.20;48.80
12839;DHT22;6486;51.034;5.262;2024-03-23T02:37:15;20.20;48.80
12839;DHT22;6486;51.034;5.262;2024-03-23T02:39:41;20.20;48.80
12839;DHT22;6486;51.034;5.262;2024-03-23T02:42:07;20.20;48.70
12839;DHT22;6486;51.034;5.262;2024-03-23T02:44:32;20.20;48.70
12839;DHT22;6486;51.034;5.262;2024-03-23T02:46:58;20.20;48.70
12839;DHT22;6486;51.034;5.262;2024-03-23T02:49:24;20.20;48.70
12839;DHT22;6486;51.034;5.262;2024-03-23T02:51:49;20.20;48.70
12839;DHT22;6486;51.034;5.262;2024-03-23T02:54:16;20.20;48.70
12839;DHT22;6486;51.034;5.262;2024-03-23T02:56:41;20.20;48.60
12839;DHT22;6486;51.034;5.262;2024-03-23T02:59:07;20.20;48.60
12839;DHT22;6486;51.034;5.262;2024-03-23T03:01:32;20.20;48.60
12839;DHT22;6486;51.034;5.262;2024-03-23T03:03:58;20.20;48.60
12839;DHT22;6486;51.034;5.262;2024-03-23T03:06:27;20.20;48.60
12839;DHT22;6486;51.034;5.262;2024-03-23T03:08:53;20.20;48.50
12839;DHT22;6486;51.034;5.262;2024-03-23T03:11:19;20.20;48.50
12839;DHT22;6486;51.034;5.262;2024-03-23T03:13:45;20.20;48.50
12839;DHT22;6486;51.034;5.262;2024-03-23T03:16:11;20.20;48.50
12839;DHT22;6486;51.034;5.262;2024-03-23T03:18:37;20.20;48.40
12839;DHT22;6486;51.034;5.262;2024-03-23T03:21:04;20.30;48.50
12839;DHT22;6486;51.034;5.262;2024-03-23T03:23:31;20.20;48.40
12839;DHT22;6486;51.034;5.262;2024-03-23T03:25:57;20.20;48.40
12839;DHT22;6486;51.034;5.262;2024-03-23T03:28:23;20.30;48.40
12839;DHT22;6486;51.034;5.262;2024-03-23T03:30:49;20.20;48.30
12839;DHT22;6486;51.034;5.262;2024-03-23T03:33:14;20.20;48.30
12839;DHT22;6486;51.034;5.262;2024-03-23T03:35:40;20.20;48.30
12839;DHT22;6486;51.034;5.262;2024-03-23T03:38:06;20.30;48.40
12839;DHT22;6486;51.034;5.262;2024-03-23T03:40:31;20.20;48.30
12839;DHT22;6486;51.034;5.262;2024-03-23T03:42:57;20.20;48.30
12839;DHT22;6486;51.034;5.262;2024-03-23T03:45:22;20.20;48.20
12839;DHT22;6486;51.034;5.262;2024-03-23T03:47:48;20.20;48.20
12839;DHT22;6486;51.034;5.262;2024-03-23T03:50:14;20.20;48.20
12839;DHT22;6486;51.034;5.262;2024-03-23T03:52:39;20.20;48.20
12839;DHT22;6486;51.034;5.262;2024-03-23T03:55:12;20.20;48.20
12839;DHT22;6486;51.034;5.262;2024-03-23T03:57:38;20.20;48.20
12839;DHT22;6486;51.034;5.262;2024-03-23T04:00:05;20.30;48.20
12839;DHT22;6486;51.034;5.262;2024-03-23T04:02:30;20.30;48.30
12839;DHT22;6486;51.034;5.262;2024-03-23T04:04:56;20.30;48.20
12839;DHT22;6486;51.034;5.262;2024-03-23T04:07:22;20.30;48.20
12839;DHT22;6486;51.034;5.262;2024-03-23T04:09:48;20.30;48.20
12839;DHT22;6486;51.034;5.262;2024-03-23T04:12:15;20.30;48.20
12839;DHT22;6486;51.034;5.262;2024-03-23T04:14:40;20.30;48.20
12839;DHT22;6486;51.034;5.262;2024-03-23T04:17:07;20.30;48.10
12839;DHT22;6486;51.034;5.262;2024-03-23T04:19:33;20.30;48.10
12839;DHT22;6486;51.034;5.262;2024-03-23T04:21:58;20.30;48.10
12839;DHT22;6486;51.034;5.262;2024-03-23T04:24:24;20.30;48.10
12839;DHT22;6486;51.034;5.262;2024-03-23T04:26:51;20.30;48.00
12839;DHT22;6486;51.034;5.262;2024-03-23T04:29:17;20.30;48.00
12839;DHT22;6486;51.034;5.262;2024-03-23T04:31:43;20.30;48.00
12839;DHT22;6486;51.034;5.262;2024-03-23T04:34:08;20.30;47.90
12839;DHT22;6486;51.034;5.262;2024-03-23T04:36:34;20.30;47.90
12839;DHT22;6486;51.034;5.262;2024-03-23T04:39:00;20.30;47.90
12839;DHT22;6486;51.034;5.262;2024-03-23T04:41:26;20.30;47.90
12839;DHT22;6486;51.034;5.262;2024-03-23T04:43:52;20.30;47.80
12839;DHT22;6486;51.034;5.262;2024-03-23T04:46:17;20.30;47.80
12839;DHT22;6486;51.034;5.262;2024-03-23T04:48:44;20.30;47.80
12839;DHT22;6486;51.034;5.262;2024-03-23T04:51:10;20.30;47.80
12839;DHT22;6486;51.034;5.262;2024-03-23T04:53:38;20.30;47.80
12839;DHT22;6486;51.034;5.262;2024-03-23T04:56:04;20.20;47.70
12839;DHT22;6486;51.034;5.262;2024-03-23T04:58:30;20.30;47.70
12839;DHT22;6486;51.034;5.262;2024-03-23T05:00:56;20.30;47.70
12839;DHT22;6486;51.034;5.262;2024-03-23T05:03:22;20.30;47.70
12839;DHT22;6486;51.034;5.262;2024-03-23T05:05:48;20.30;47.70
12839;DHT22;6486;51.034;5.262;2024-03-23T05:08:15;20.30;47.60
12839;DHT22;6486;51.034;5.262;2024-03-23T05:10:42;20.30;47.60
12839;DHT22;6486;51.034;5.262;2024-03-23T05:13:07;20.30;47.60
12839;DHT22;6486;51.034;5.262;2024-03-23T05:15:33;20.30;47.60
12839;DHT22;6486;51.034;5.262;2024-03-23T05:17:59;20.30;47.50
12839;DHT22;6486;51.034;5.262;2024-03-23T05:20:25;20.30;47.50
12839;DHT22;6486;51.034;5.262;2024-03-23T05:22:50;20.30;47.40
12839;DHT22;6486;51.034;5.262;2024-03-23T05:25:16;20.30;47.40
12839;DHT22;6486;51.034;5.262;2024-03-23T05:27:42;20.30;47.40
12839;DHT22;6486;51.034;5.262;2024-03-23T05:30:07;20.30;47.70
12839;DHT22;6486;51.034;5.262;2024-03-23T05:32:34;20.30;47.30
12839;DHT22;6486;51.034;5.262;2024-03-23T05:35:00;20.30;47.30
12839;DHT22;6486;51.034;5.262;2024-03-23T05:37:27;20.30;47.20
12839;DHT22;6486;51.034;5.262;2024-03-23T05:39:53;20.30;47.20
12839;DHT22;6486;51.034;5.262;2024-03-23T05:42:19;20.30;47.20
12839;DHT22;6486;51.034;5.262;2024-03-23T05:44:45;20.30;47.20
12839;DHT22;6486;51.034;5.262;2024-03-23T05:47:12;20.30;47.20
12839;DHT22;6486;51.034;5.262;2024-03-23T05:49:42;20.30;47.20
12839;DHT22;6486;51.034;5.262;2024-03-23T05:52:09;20.30;47.20
12839;DHT22;6486;51.034;5.262;2024-03-23T05:54:35;20.30;47.10
12839;DHT22;6486;51.034;5.262;2024-03-23T05:57:01;20.30;47.10
12839;DHT22;6486;51.034;5.262;2024-03-23T05:59:27;20.30;47.10
12839;DHT22;6486;51.034;5.262;2024-03-23T06:01:53;20.30;47.10
12839;DHT22;6486;51.034;5.262;2024-03-23T06:04:19;20.30;47.10
12839;DHT22;6486;51.034;5.262;2024-03-23T06:06:45;20.30;47.10
12839;DHT22;6486;51.034;5.262;2024-03-23T06:09:10;20.30;47.00
12839;DHT22;6486;51.034;5.262;2024-03-23T06:11:36;20.30;47.00
12839;DHT22;6486;51.034;5.262;2024-03-23T06:14:02;20.30;47.00
12839;DHT22;6486;51.034;5.262;2024-03-23T06:16:27;20.30;47.00
12839;DHT22;6486;51.034;5.262;2024-03-23T06:18:54;20.30;47.00
12839;DHT22;6486;51.034;5.262;2024-03-23T06:21:20;20.30;46.90
12839;DHT22;6486;51.034;5.262;2024-03-23T06:23:46;20.30;46.90
12839;DHT22;6486;51.034;5.262;2024-03-23T06:26:17;20.30;46.90
12839;DHT22;6486;51.034;5.262;2024-03-23T06:28:43;20.30;46.90
12839;DHT22;6486;51.034;5.262;2024-03-23T06:31:10;20.30;46.80
12839;DHT22;6486;51.034;5.262;2024-03-23T06:33:35;20.30;46.80
12839;DHT22;6486;51.034;5.262;2024-03-23T06:36:01;20.30;46.80
12839;DHT22;6486;51.034;5.262;2024-03-23T06:38:28;20.30;46.80
12839;DHT22;6486;51.034;5.262;2024-03-23T06:40:54;20.30;46.80
12839;DHT22;6486;51.034;5.262;2024-03-23T06:43:20;20.30;46.70
12839;DHT22;6486;51.034;5.262;2024-03-23T06:45:53;20.30;46.70
12839;DHT22;6486;51.034;5.262;2024-03-23T06:48:19;20.30;46.70
12839;DHT22;6486;51.034;5.262;2024-03-23T06:50:45;20.30;46.70
12839;DHT22;6486;51.034;5.262;2024-03-23T06:53:15;20.30;46.70
12839;DHT22;6486;51.034;5.262;2024-03-23T06:55:41;20.30;46.70
12839;DHT22;6486;51.034;5.262;2024-03-23T06:58:07;20.30;46.70
12839;DHT22;6486;51.034;5.262;2024-03-23T07:00:33;20.30;46.70
12839;DHT22;6486;51.034;5.262;2024-03-23T07:02:59;20.30;46.70
12839;DHT22;6486;51.034;5.262;2024-03-23T07:05:25;20.30;46.70
12839;DHT22;6486;51.034;5.262;2024-03-23T07:07:51;20.30;46.80
12839;DHT22;6486;51.034;5.262;2024-03-23T07:10:17;20.30;46.70
12839;DHT22;6486;51.034;5.262;2024-03-23T07:12:43;20.30;46.70
12839;DHT22;6486;51.034;5.262;2024-03-23T07:15:09;20.30;46.60
12839;DHT22;6486;51.034;5.262;2024-03-23T07:17:35;20.30;46.70
12839;DHT22;6486;51.034;5.262;2024-03-23T07:20:01;20.30;46.60
12839;DHT22;6486;51.034;5.262;2024-03-23T07:22:30;20.30;46.60
12839;DHT22;6486;51.034;5.262;2024-03-23T07:24:55;20.30;46.60
12839;DHT22;6486;51.034;5.262;2024-03-23T07:27:21;20.30;46.50
12839;DHT22;6486;51.034;5.262;2024-03-23T07:29:47;20.30;46.50
12839;DHT22;6486;51.034;5.262;2024-03-23T07:32:13;20.30;46.50
12839;DHT22;6486;51.034;5.262;2024-03-23T07:34:39;20.30;46.50
12839;DHT22;6486;51.034;5.262;2024-03-23T07:37:04;20.30;46.50
12839;DHT22;6486;51.034;5.262;2024-03-23T07:39:30;20.30;46.40
12839;DHT22;6486;51.034;5.262;2024-03-23T07:41:58;20.30;46.40
12839;DHT22;6486;51.034;5.262;2024-03-23T07:44:24;20.30;46.40
12839;DHT22;6486;51.034;5.262;2024-03-23T07:46:49;20.30;46.40
12839;DHT22;6486;51.034;5.262;2024-03-23T07:49:15;20.30;46.40
12839;DHT22;6486;51.034;5.262;2024-03-23T07:51:40;20.30;46.40
12839;DHT22;6486;51.034;5.262;2024-03-23T07:54:06;20.40;46.40
12839;DHT22;6486;51.034;5.262;2024-03-23T07:56:32;20.30;46.40
12839;DHT22;6486;51.034;5.262;2024-03-23T07:58:58;20.40;46.40
12839;DHT22;6486;51.034;5.262;2024-03-23T08:01:23;20.30;46.30
12839;DHT22;6486;51.034;5.262;2024-03-23T08:03:49;20.30;46.30
12839;DHT22;6486;51.034;5.262;2024-03-23T08:06:17;20.30;46.30
12839;DHT22;6486;51.034;5.262;2024-03-23T08:08:45;20.30;46.30
12839;DHT22;6486;51.034;5.262;2024-03-23T08:11:11;20.30;46.30
12839;DHT22;6486;51.034;5.262;2024-03-23T08:13:39;20.30;46.30
12839;DHT22;6486;51.034;5.262;2024-03-23T08:16:05;20.30;46.30
12839;DHT22;6486;51.034;5.262;2024-03-23T08:18:31;20.30;46.30
12839;DHT22;6486;51.034;5.262;2024-03-23T08:21:01;20.30;46.30
12839;DHT22;6486;51.034;5.262;2024-03-23T08:23:28;20.30;46.30
12839;DHT22;6486;51.034;5.262;2024-03-23T08:25:58;20.30;46.30
12839;DHT22;6486;51.034;5.262;2024-03-23T08:28:24;20.30;46.30
12839;DHT22;6486;51.034;5.262;2024-03-23T08:30:50;20.30;46.30
12839;DHT22;6486;51.034;5.262;2024-03-23T08:33:16;20.30;46.90
12839;DHT22;6486;51.034;5.262;2024-03-23T08:35:42;20.30;46.30
12839;DHT22;6486;51.034;5.262;2024-03-23T08:38:08;20.30;46.20
12839;DHT22;6486;51.034;5.262;2024-03-23T08:40:33;20.30;46.30
12839;DHT22;6486;51.034;5.262;2024-03-23T08:42:59;20.30;46.20
12839;DHT22;6486;51.034;5.262;2024-03-23T08:45:25;20.30;46.20
12839;DHT22;6486;51.034;5.262;2024-03-23T08:47:51;20.30;46.20
12839;DHT22;6486;51.034;5.262;2024-03-23T08:50:17;20.40;46.30
12839;DHT22;6486;51.034;5.262;2024-03-23T08:52:43;20.40;46.30
12839;DHT22;6486;51.034;5.262;2024-03-23T08:55:09;20.40;46.30
12839;DHT22;6486;51.034;5.262;2024-03-23T08:57:35;20.40;46.30
12839;DHT22;6486;51.034;5.262;2024-03-23T09:00:02;20.30;46.10
12839;DHT22;6486;51.034;5.262;2024-03-23T09:02:28;20.30;46.20
12839;DHT22;6486;51.034;5.262;2024-03-23T09:04:53;20.30;46.80
12839;DHT22;6486;51.034;5.262;2024-03-23T09:07:19;20.30;46.10
12839;DHT22;6486;51.034;5.262;2024-03-23T09:09:44;20.30;46.10
12839;DHT22;6486;51.034;5.262;2024-03-23T09:12:10;20.30;46.10
12839;DHT22;6486;51.034;5.262;2024-03-23T09:14:36;20.40;46.20
12839;DHT22;6486;51.034;5.262;2024-03-23T09:17:01;20.30;46.10
12839;DHT22;6486;51.034;5.262;2024-03-23T09:19:29;20.30;46.10
12839;DHT22;6486;51.034;5.262;2024-03-23T09:21:55;20.30;46.10
12839;DHT22;6486;51.034;5.262;2024-03-23T09:24:21;20.30;46.10
12839;DHT22;6486;51.034;5.262;2024-03-23T09:26:47;20.30;46.10
12839;DHT22;6486;51.034;5.262;2024-03-23T09:29:12;20.40;46.20
12839;DHT22;6486;51.034;5.262;2024-03-23T09:31:39;20.30;46.00
12839;DHT22;6486;51.034;5.262;2024-03-23T09:34:06;20.30;46.00
12839;DHT22;6486;51.034;5.262;2024-03-23T09:36:32;20.30;46.00
12839;DHT22;6486;51.034;5.262;2024-03-23T09:38:57;20.30;46.00
12839;DHT22;6486;51.034;5.262;2024-03-23T09:41:23;20.30;45.90
12839;DHT22;6486;51.034;5.262;2024-03-23T09:43:52;20.40;46.00
12839;DHT22;6486;51.034;5.262;2024-03-23T09:46:19;20.40;46.00
12839;DHT22;6486;51.034;5.262;2024-03-23T09:48:46;20.30;45.80
12839;DHT22;6486;51.034;5.262;2024-03-23T09:51:12;20.40;45.90
12839;DHT22;6486;51.034;5.262;2024-03-23T09:53:38;20.40;45.90
12839;DHT22;6486;51.034;5.262;2024-03-23T09:56:04;20.40;45.80
12839;DHT22;6486;51.034;5.262;2024-03-23T09:58:30;20.40;45.80
12839;DHT22;6486;51.034;5.262;2024-03-23T10:00:58;20.40;45.80
12839;DHT22;6486;51.034;5.262;2024-03-23T10:03:24;20.40;45.70
12839;DHT22;6486;51.034;5.262;2024-03-23T10:06:01;20.40;45.70
12839;DHT22;6486;51.034;5.262;2024-03-23T10:08:29;20.40;45.70
12839;DHT22;6486;51.034;5.262;2024-03-23T10:10:55;20.40;45.60
12839;DHT22;6486;51.034;5.262;2024-03-23T10:13:25;20.40;45.60
12839;DHT22;6486;51.034;5.262;2024-03-23T10:15:58;20.40;45.50
12839;DHT22;6486;51.034;5.262;2024-03-23T10:18:24;20.40;45.50
12839;DHT22;6486;51.034;5.262;2024-03-23T10:20:52;20.40;45.50
12839;DHT22;6486;51.034;5.262;2024-03-23T10:23:32;20.40;45.50
12839;DHT22;6486;51.034;5.262;2024-03-23T10:26:23;20.40;45.50
12839;DHT22;6486;51.034;5.262;2024-03-23T10:29:00;20.40;45.40
12839;DHT22;6486;51.034;5.262;2024-03-23T10:31:31;20.40;45.40
12839;DHT22;6486;51.034;5.262;2024-03-23T10:33:57;20.40;46.00
12839;DHT22;6486;51.034;5.262;2024-03-23T10:36:24;20.40;45.30
12839;DHT22;6486;51.034;5.262;2024-03-23T10:38:51;20.40;45.30
12839;DHT22;6486;51.034;5.262;2024-03-23T10:41:18;20.40;45.30
12839;DHT22;6486;51.034;5.262;2024-03-23T10:43:48;20.40;45.40
12839;DHT22;6486;51.034;5.262;2024-03-23T10:46:15;20.40;45.30
12839;DHT22;6486;51.034;5.262;2024-03-23T10:48:40;20.40;45.30
12839;DHT22;6486;51.034;5.262;2024-03-23T10:51:10;20.30;45.20
12839;DHT22;6486;51.034;5.262;2024-03-23T10:53:36;20.30;45.20
12839;DHT22;6486;51.034;5.262;2024-03-23T10:56:03;20.30;45.20
12839;DHT22;6486;51.034;5.262;2024-03-23T10:58:41;20.30;45.20
12839;DHT22;6486;51.034;5.262;2024-03-23T11:01:11;20.40;45.30
12839;DHT22;6486;51.034;5.262;2024-03-23T11:03:38;20.30;45.20
12839;DHT22;6486;51.034;5.262;2024-03-23T11:06:06;20.40;45.30
12839;DHT22;6486;51.034;5.262;2024-03-23T11:08:35;20.40;45.30
12839;DHT22;6486;51.034;5.262;2024-03-23T11:13:52;20.40;45.30
12839;DHT22;6486;51.034;5.262;2024-03-23T11:16:26;20.40;45.20
12839;DHT22;6486;51.034;5.262;2024-03-23T11:19:34;20.40;45.20
12839;DHT22;6486;51.034;5.262;2024-03-23T11:22:01;20.40;45.20
12839;DHT22;6486;51.034;5.262;2024-03-23T11:24:26;20.40;45.20
12839;DHT22;6486;51.034;5.262;2024-03-23T11:26:52;20.30;45.10
12839;DHT22;6486;51.034;5.262;2024-03-23T11:29:18;20.30;45.00
12839;DHT22;6486;51.034;5.262;2024-03-23T11:31:51;20.30;45.10
12839;DHT22;6486;51.034;5.262;2024-03-23T11:34:18;20.30;45.00
12839;DHT22;6486;51.034;5.262;2024-03-23T11:36:44;20.40;45.10
12839;DHT22;6486;51.034;5.262;2024-03-23T11:39:20;20.30;45.00
12839;DHT22;6486;51.034;5.262;2024-03-23T11:41:52;20.30;45.00
12839;DHT22;6486;51.034;5.262;2024-03-23T11:44:19;20.30;45.00
12839;DHT22;6486;51.034;5.262;2024-03-23T11:46:46;20.30;45.00
12839;DHT22;6486;51.034;5.262;2024-03-23T11:49:28;20.30;45.00
12839;DHT22;6486;51.034;5.262;2024-03-23T11:51:56;20.30;45.00
12839;DHT22;6486;51.034;5.262;2024-03-23T11:54:26;20.30;44.90
12839;DHT22;6486;51.034;5.262;2024-03-23T11:57:08;20.30;44.90
12839;DHT22;6486;51.034;5.262;2024-03-23T11:59:38;20.30;44.90
12839;DHT22;6486;51.034;5.262;2024-03-23T12:02:10;20.30;44.90
12839;DHT22;6486;51.034;5.262;2024-03-23T12:04:37;20.30;44.90
12839;DHT22;6486;51.034;5.262;2024-03-23T12:09:37;20.30;44.90
12839;DHT22;6486;51.034;5.262;2024-03-23T12:12:11;20.30;44.80
12839;DHT22;6486;51.034;5.262;2024-03-23T12:14:40;20.30;44.80
12839;DHT22;6486;51.034;5.262;2024-03-23T12:19:35;20.30;44.80
12839;DHT22;6486;51.034;5.262;2024-03-23T12:22:03;20.40;44.80
12839;DHT22;6486;51.034;5.262;2024-03-23T12:24:29;20.30;44.70
12839;DHT22;6486;51.034;5.262;2024-03-23T12:26:59;20.30;44.70
12839;DHT22;6486;51.034;5.262;2024-03-23T12:29:28;20.40;44.80
12839;DHT22;6486;51.034;5.262;2024-03-23T12:31:53;20.40;44.70
12839;DHT22;6486;51.034;5.262;2024-03-23T12:34:19;20.40;44.70
12839;DHT22;6486;51.034;5.262;2024-03-23T12:36:45;20.40;44.60
12839;DHT22;6486;51.034;5.262;2024-03-23T12:39:11;20.30;44.60
12839;DHT22;6486;51.034;5.262;2024-03-23T12:41:36;20.30;44.50
12839;DHT22;6486;51.034;5.262;2024-03-23T12:44:02;20.30;44.40
12839;DHT22;6486;51.034;5.262;2024-03-23T12:46:28;20.30;44.40
12839;DHT22;6486;51.034;5.262;2024-03-23T12:48:53;20.30;44.40
12839;DHT22;6486;51.034;5.262;2024-03-23T12:51:19;20.30;44.40
12839;DHT22;6486;51.034;5.262;2024-03-23T12:53:45;20.30;44.40
12839;DHT22;6486;51.034;5.262;2024-03-23T12:56:13;20.30;44.40
12839;DHT22;6486;51.034;5.262;2024-03-23T12:58:39;20.30;44.40
12839;DHT22;6486;51.034;5.262;2024-03-23T13:01:04;20.40;44.40
12839;DHT22;6486;51.034;5.262;2024-03-23T13:03:32;20.40;44.40
12839;DHT22;6486;51.034;5.262;2024-03-23T13:05:57;20.30;44.40
12839;DHT22;6486;51.034;5.262;2024-03-23T13:08:23;20.40;44.40
12839;DHT22;6486;51.034;5.262;2024-03-23T13:10:52;20.40;44.40
12839;DHT22;6486;51.034;5.262;2024-03-23T13:13:18;20.30;44.40
12839;DHT22;6486;51.034;5.262;2024-03-23T13:15:50;20.30;44.40
12839;DHT22;6486;51.034;5.262;2024-03-23T13:18:15;20.30;44.40
12839;DHT22;6486;51.034;5.262;2024-03-23T13:20:41;20.30;44.40
12839;DHT22;6486;51.034;5.262;2024-03-23T13:23:07;20.30;44.40
12839;DHT22;6486;51.034;5.262;2024-03-23T13:25:33;20.30;44.40
12839;DHT22;6486;51.034;5.262;2024-03-23T13:27:59;20.30;44.40
12839;DHT22;6486;51.034;5.262;2024-03-23T13:30:24;20.30;44.40
12839;DHT22;6486;51.034;5.262;2024-03-23T13:32:50;20.30;44.40
12839;DHT22;6486;51.034;5.262;2024-03-23T13:35:16;20.40;44.50
12839;DHT22;6486;51.034;5.262;2024-03-23T13:37:41;20.30;44.40
12839;DHT22;6486;51.034;5.262;2024-03-23T13:40:08;20.30;44.50
12839;DHT22;6486;51.034;5.262;2024-03-23T13:42:34;20.30;44.50
12839;DHT22;6486;51.034;5.262;2024-03-23T13:44:59;20.30;44.50
12839;DHT22;6486;51.034;5.262;2024-03-23T13:47:25;20.40;44.50
12839;DHT22;6486;51.034;5.262;2024-03-23T13:49:51;20.40;44.50
12839;DHT22;6486;51.034;5.262;2024-03-23T13:52:16;20.40;44.50
12839;DHT22;6486;51.034;5.262;2024-03-23T13:54:48;20.40;44.60
12839;DHT22;6486;51.034;5.262;2024-03-23T13:57:14;20.40;44.60
12839;DHT22;6486;51.034;5.262;2024-03-23T13:59:40;20.40;44.60
12839;DHT22;6486;51.034;5.262;2024-03-23T14:02:05;20.40;44.60
12839;DHT22;6486;51.034;5.262;2024-03-23T14:04:31;20.40;44.60
12839;DHT22;6486;51.034;5.262;2024-03-23T14:06:57;20.40;44.60
12839;DHT22;6486;51.034;5.262;2024-03-23T14:09:23;20.40;44.60
12839;DHT22;6486;51.034;5.262;2024-03-23T14:11:51;20.40;44.60
12839;DHT22;6486;51.034;5.262;2024-03-23T14:14:17;20.40;44.60
12839;DHT22;6486;51.034;5.262;2024-03-23T14:16:43;20.40;44.60
12839;DHT22;6486;51.034;5.262;2024-03-23T14:19:09;20.40;44.60
12839;DHT22;6486;51.034;5.262;2024-03-23T14:21:35;20.40;44.60
12839;DHT22;6486;51.034;5.262;2024-03-23T14:24:01;20.40;44.60
12839;DHT22;6486;51.034;5.262;2024-03-23T14:26:27;20.40;44.60
12839;DHT22;6486;51.034;5.262;2024-03-23T14:28:53;20.40;44.60
12839;DHT22;6486;51.034;5.262;2024-03-23T14:31:19;20.40;44.60
12839;DHT22;6486;51.034;5.262;2024-03-23T14:33:45;20.40;44.60
12839;DHT22;6486;51.034;5.262;2024-03-23T14:36:16;20.40;44.60
12839;DHT22;6486;51.034;5.262;2024-03-23T14:38:47;20.50;44.70
12839;DHT22;6486;51.034;5.262;2024-03-23T14:41:12;20.40;44.60
12839;DHT22;6486;51.034;5.262;2024-03-23T14:43:38;20.40;44.60
12839;DHT22;6486;51.034;5.262;2024-03-23T14:46:11;20.50;44.70
12839;DHT22;6486;51.034;5.262;2024-03-23T14:48:38;20.40;44.60
12839;DHT22;6486;51.034;5.262;2024-03-23T14:51:05;20.50;44.70
12839;DHT22;6486;51.034;5.262;2024-03-23T14:53:32;20.50;44.70
12839;DHT22;6486;51.034;5.262;2024-03-23T14:56:02;20.50;44.80
12839;DHT22;6486;51.034;5.262;2024-03-23T14:58:28;20.50;44.80
12839;DHT22;6486;51.034;5.262;2024-03-23T15:01:05;20.50;44.80
12839;DHT22;6486;51.034;5.262;2024-03-23T15:03:34;20.50;44.70
12839;DHT22;6486;51.034;5.262;2024-03-23T15:06:00;20.50;44.70
12839;DHT22;6486;51.034;5.262;2024-03-23T15:08:27;20.50;44.70
12839;DHT22;6486;51.034;5.262;2024-03-23T15:10:59;20.40;44.60
12839;DHT22;6486;51.034;5.262;2024-03-23T15:13:25;20.50;44.70
12839;DHT22;6486;51.034;5.262;2024-03-23T15:15:51;20.50;44.70
12839;DHT22;6486;51.034;5.262;2024-03-23T15:18:18;20.50;44.70
12839;DHT22;6486;51.034;5.262;2024-03-23T15:21:00;20.50;44.80
12839;DHT22;6486;51.034;5.262;2024-03-23T15:23:33;20.50;44.80
12839;DHT22;6486;51.034;5.262;2024-03-23T15:26:00;20.50;44.70
12839;DHT22;6486;51.034;5.262;2024-03-23T15:28:26;20.50;44.80
12839;DHT22;6486;51.034;5.262;2024-03-23T15:31:06;20.50;44.80
12839;DHT22;6486;51.034;5.262;2024-03-23T15:33:33;20.50;44.80
12839;DHT22;6486;51.034;5.262;2024-03-23T15:36:02;20.50;44.80
12839;DHT22;6486;51.034;5.262;2024-03-23T15:38:28;20.50;44.70
12839;DHT22;6486;51.034;5.262;2024-03-23T15:40:57;20.50;44.70
12839;DHT22;6486;51.034;5.262;2024-03-23T15:43:23;20.50;44.80
12839;DHT22;6486;51.034;5.262;2024-03-23T15:46:14;20.50;44.80
12839;DHT22;6486;51.034;5.262;2024-03-23T15:48:41;20.50;44.80
12839;DHT22;6486;51.034;5.262;2024-03-23T15:51:11;20.50;44.80
12839;DHT22;6486;51.034;5.262;2024-03-23T15:53:37;20.50;44.80
12839;DHT22;6486;51.034;5.262;2024-03-23T15:56:04;20.50;44.80
12839;DHT22;6486;51.034;5.262;2024-03-23T15:58:31;20.50;44.80
12839;DHT22;6486;51.034;5.262;2024-03-23T16:01:03;20.50;44.80
12839;DHT22;6486;51.034;5.262;2024-03-23T16:03:30;20.50;44.80
12839;DHT22;6486;51.034;5.262;2024-03-23T16:05:59;20.50;44.80
12839;DHT22;6486;51.034;5.262;2024-03-23T16:08:25;20.50;44.80
12839;DHT22;6486;51.034;5.262;2024-03-23T16:10:52;20.50;44.80
12839;DHT22;6486;51.034;5.262;2024-03-23T16:13:19;20.50;44.80
12839;DHT22;6486;51.034;5.262;2024-03-23T16:15:45;20.50;44.80
12839;DHT22;6486;51.034;5.262;2024-03-23T16:18:11;20.50;44.80
12839;DHT22;6486;51.034;5.262;2024-03-23T16:20:37;20.50;44.80
12839;DHT22;6486;51.034;5.262;2024-03-23T16:23:05;20.50;44.80
12839;DHT22;6486;51.034;5.262;2024-03-23T16:25:32;20.50;44.80
12839;DHT22;6486;51.034;5.262;2024-03-23T16:27:57;20.50;45.40
12839;DHT22;6486;51.034;5.262;2024-03-23T16:30:23;20.50;44.80
12839;DHT22;6486;51.034;5.262;2024-03-23T16:32:49;20.50;44.80
12839;DHT22;6486;51.034;5.262;2024-03-23T16:35:15;20.50;44.80
12839;DHT22;6486;51.034;5.262;2024-03-23T16:37:41;20.50;44.80
12839;DHT22;6486;51.034;5.262;2024-03-23T16:40:08;20.50;44.80
12839;DHT22;6486;51.034;5.262;2024-03-23T16:42:35;20.50;44.80
12839;DHT22;6486;51.034;5.262;2024-03-23T16:45:01;20.60;44.90